Newport, Virginia
Current Conditions -  °F | °C
As of 10:35 AM on Friday 19 Dec 2014 (Local Time) from KBCB Reporting Station
Clear Clear  
Wind Chill: 26°   Ceiling: Unl
Heat Index: 32°   Visibility: 10mi
Dew Point: 22°   Wind: 7mph
Humidity: 67%   Direction: 270°W
Pressure: 30.21"   Gusts: 17mph
Location:  37.29°N, 80.49°W
Report Text: KBCB 191535Z AUTO 27006G15KT 10SM CLR 00/M05 A3021 RMK AO2 T00011053
Loading
Personal Weather Stations






























Interactive Weather Map New forecast layout! Learn more

10-Day Weather Forecast

Advertisements
Track Severe Weather on mobile